Terminal Aerodrome Forecast
Issued by NWS

Home | Current Version | Previous Version | Text Only | Print | Product List | Glossary On
Versions: 1 2 3 4 5 6 7 8 9 10 11 12 13
646
FTUS43 KOAX 251621 AAC
TAFSNY
TAF AMD
KSNY 251621Z 2516/2612 VRB05KT P6SM SCT008
     FM251800 35015KT P6SM VCSH BKN015 OVC050
     FM252200 01018G27KT P6SM OVC015
     FM260400 36017G25KT P6SM OVC025=

USA.gov is the U.S. government's official web portal to all federal, state and local government web resources and services.